createdAt,value
2017-05-05T00:02:10.965Z,16.65
2017-05-05T00:04:40.017Z,15.97
2017-05-05T00:07:09.061Z,18.35
2017-05-05T00:09:38.846Z,16.98
2017-05-05T00:12:07.961Z,16.88
2017-05-05T00:14:37.741Z,16.63
2017-05-05T00:17:06.813Z,18.08
2017-05-05T00:19:35.861Z,17.15
2017-05-05T00:22:05.669Z,17.75
2017-05-05T00:24:34.700Z,15.83
2017-05-05T00:27:03.746Z,17.05
2017-05-05T00:29:32.800Z,16.28
2017-05-05T00:32:01.901Z,17.03
2017-05-05T00:34:31.129Z,17.33
2017-05-05T00:37:00.189Z,17.17
2017-05-05T00:39:29.220Z,17.85
2017-05-05T00:41:58.331Z,20.92
2017-05-05T00:44:27.378Z,18.90
2017-05-05T00:46:56.516Z,20.40
2017-05-05T00:49:25.547Z,19.97
2017-05-05T00:51:54.576Z,26.62
2017-05-05T00:54:23.649Z,20.45
2017-05-05T00:56:52.685Z,20.62
2017-05-05T00:59:21.733Z,20.65
2017-05-05T01:01:50.757Z,19.63
2017-05-05T01:04:19.883Z,24.05
2017-05-05T01:06:49.665Z,23.32
2017-05-05T01:09:18.744Z,23.18
2017-05-05T01:11:47.876Z,18.70
2017-05-05T01:14:16.927Z,24.17
2017-05-05T01:16:45.962Z,23.48
2017-05-05T01:19:15.009Z,24.12
2017-05-05T01:21:44.054Z,22.22
2017-05-05T01:24:13.182Z,22.45
2017-05-05T01:26:42.213Z,21.37
2017-05-05T01:29:11.241Z,24.62
2017-05-05T01:31:41.033Z,21.07
2017-05-05T01:34:10.069Z,22.95
2017-05-05T01:36:39.856Z,24.55
2017-05-05T01:39:08.891Z,22.57
2017-05-05T01:41:37.929Z,22.82
2017-05-05T01:44:06.970Z,23.25
2017-05-05T01:46:36.018Z,26.37
2017-05-05T01:49:05.049Z,24.38
2017-05-05T01:51:34.111Z,25.80
2017-05-05T01:54:03.146Z,21.87
2017-05-05T01:56:32.190Z,26.17
2017-05-05T01:59:01.220Z,21.35
2017-05-05T02:01:30.281Z,22.72
2017-05-05T02:03:59.315Z,21.90
2017-05-05T02:06:28.371Z,21.12
2017-05-05T02:08:57.395Z,22.30
2017-05-05T02:11:26.458Z,21.90
2017-05-05T02:13:55.484Z,23.98
2017-05-05T02:16:24.522Z,23.10
2017-05-05T02:18:53.650Z,26.57
2017-05-05T02:21:23.437Z,22.93
2017-05-05T02:23:52.481Z,20.47
2017-05-05T02:26:21.562Z,24.28
2017-05-05T02:28:51.350Z,22.17
2017-05-05T02:31:20.381Z,22.02
2017-05-05T02:33:49.554Z,23.47
2017-05-05T02:36:18.587Z,19.72
2017-05-05T02:38:47.642Z,22.08
2017-05-05T02:41:17.449Z,18.93
2017-05-05T02:43:46.549Z,20.90
2017-05-05T02:46:16.329Z,19.67
2017-05-05T02:48:45.360Z,17.85
2017-05-05T02:51:15.153Z,21.77
2017-05-05T02:53:44.185Z,24.12
2017-05-05T02:56:13.237Z,19.95
2017-05-05T02:58:42.334Z,21.52
2017-05-05T03:01:11.377Z,22.32
2017-05-05T03:03:40.410Z,22.90
2017-05-05T03:06:09.469Z,21.63
2017-05-05T03:08:38.529Z,21.65
2017-05-05T03:11:08.450Z,20.00
2017-05-05T03:13:38.233Z,21.28
2017-05-05T03:16:07.288Z,21.67
2017-05-05T03:18:36.456Z,17.33
2017-05-05T03:21:06.352Z,19.23
2017-05-05T03:23:35.395Z,19.05
2017-05-05T03:26:04.439Z,20.77
2017-05-05T03:28:33.483Z,18.95
2017-05-05T03:31:02.535Z,20.98
2017-05-05T03:33:31.579Z,21.98
2017-05-05T03:36:00.629Z,19.05
2017-05-05T03:38:30.420Z,21.38
2017-05-05T03:40:59.461Z,18.95
2017-05-05T03:43:28.530Z,20.52
2017-05-05T03:45:58.314Z,20.57
2017-05-05T03:48:27.373Z,23.52
2017-05-05T03:50:56.407Z,23.00
2017-05-05T03:53:25.484Z,21.32
2017-05-05T03:55:54.510Z,20.20
2017-05-05T03:58:24.317Z,22.73
2017-05-05T04:00:54.120Z,23.25
2017-05-05T04:03:23.153Z,26.47
2017-05-05T04:05:52.225Z,22.90
2017-05-05T04:08:22.005Z,22.70
2017-05-05T04:10:51.076Z,23.75
2017-05-05T04:13:20.132Z,21.77
2017-05-05T04:15:49.908Z,24.88
2017-05-05T04:18:18.953Z,22.65
2017-05-05T04:20:48.030Z,19.87
2017-05-05T04:23:17.071Z,20.73
2017-05-05T04:25:46.098Z,21.08
2017-05-05T04:28:15.897Z,22.63
2017-05-05T04:30:44.940Z,21.18
2017-05-05T04:33:14.100Z,23.73
2017-05-05T04:35:43.157Z,20.45
2017-05-05T04:38:12.206Z,20.68
2017-05-05T04:40:41.986Z,20.33
2017-05-05T04:43:11.082Z,21.83
2017-05-05T04:45:40.189Z,22.85
2017-05-05T04:48:09.245Z,21.02
2017-05-05T04:50:38.294Z,21.95
2017-05-05T04:53:08.093Z,22.37
2017-05-05T04:55:37.129Z,25.80
2017-05-05T04:58:06.177Z,19.17
2017-05-05T05:00:35.239Z,21.38
2017-05-05T05:03:04.369Z,29.60
2017-05-05T05:05:33.397Z,21.62
2017-05-05T05:08:02.444Z,21.55
2017-05-05T05:10:31.507Z,21.42
2017-05-05T05:13:00.539Z,21.53
2017-05-05T05:15:29.588Z,17.78
2017-05-05T05:17:58.648Z,18.32
2017-05-05T05:20:27.669Z,21.30
2017-05-05T05:22:56.705Z,19.00
2017-05-05T05:25:25.761Z,17.62
2017-05-05T05:27:54.811Z,17.35
2017-05-05T05:30:24.670Z,19.40
2017-05-05T05:32:53.700Z,19.77
2017-05-05T05:35:22.788Z,22.22
2017-05-05T05:37:51.926Z,17.87
2017-05-05T05:40:21.689Z,18.88
2017-05-05T05:42:50.842Z,22.43
2017-05-05T05:45:20.605Z,19.73
2017-05-05T05:47:49.681Z,19.08
2017-05-05T05:50:18.723Z,19.63
2017-05-05T05:52:48.516Z,21.85
2017-05-05T05:55:17.612Z,19.47
2017-05-05T05:57:46.732Z,23.33
2017-05-05T06:00:16.493Z,19.97
2017-05-05T06:02:45.549Z,20.40
2017-05-05T06:05:14.585Z,22.50
2017-05-05T06:07:43.645Z,19.80
2017-05-05T06:10:12.688Z,19.67
2017-05-05T06:12:43.362Z,21.33
2017-05-05T06:15:12.415Z,18.38
2017-05-05T06:17:41.482Z,21.55
2017-05-05T06:20:10.727Z,19.63
2017-05-05T06:22:40.533Z,18.50
2017-05-05T06:25:09.624Z,19.88
2017-05-05T06:27:39.435Z,21.25
2017-05-05T06:30:09.441Z,20.05
2017-05-05T06:32:38.478Z,20.42
2017-05-05T06:35:07.531Z,22.65
2017-05-05T06:37:36.573Z,20.88
2017-05-05T06:40:05.728Z,24.35
2017-05-05T06:42:34.776Z,19.05
2017-05-05T06:45:03.930Z,19.87
2017-05-05T06:47:33.746Z,21.67
2017-05-05T06:50:02.785Z,22.35
2017-05-05T06:52:31.838Z,23.03
2017-05-05T06:55:01.662Z,20.60
2017-05-05T06:57:30.698Z,21.28
2017-05-05T06:59:59.833Z,22.15
2017-05-05T07:02:29.421Z,23.35
2017-05-05T07:04:58.503Z,23.68
2017-05-05T07:07:27.547Z,21.40
2017-05-05T07:09:56.601Z,21.73
2017-05-05T07:12:25.637Z,21.03
2017-05-05T07:14:55.130Z,20.68
2017-05-05T07:17:24.904Z,23.45
2017-05-05T07:19:53.964Z,22.58
2017-05-05T07:22:23.744Z,17.53
2017-05-05T07:24:52.781Z,28.63
2017-05-05T07:27:21.820Z,23.22
2017-05-05T07:29:51.609Z,21.42
2017-05-05T07:32:20.641Z,27.07
2017-05-05T07:34:49.717Z,25.63
2017-05-05T07:37:19.492Z,30.53
2017-05-05T07:39:48.530Z,25.63
2017-05-05T07:42:18.347Z,22.17
2017-05-05T07:44:48.143Z,24.97
2017-05-05T07:47:17.192Z,26.72
2017-05-05T07:49:46.721Z,29.00
2017-05-05T07:52:15.793Z,29.05
2017-05-05T07:54:44.947Z,30.18
2017-05-05T07:57:14.489Z,32.02
2017-05-05T07:59:43.523Z,30.92
2017-05-05T08:02:12.586Z,35.28
2017-05-05T08:04:41.633Z,39.53
2017-05-05T08:07:11.429Z,34.72
2017-05-05T08:09:40.481Z,37.43
2017-05-05T08:12:09.570Z,44.67
2017-05-05T08:14:38.597Z,33.97
2017-05-05T08:17:07.682Z,35.67
2017-05-05T08:19:36.805Z,35.80
2017-05-05T08:22:06.645Z,37.03
2017-05-05T08:24:35.689Z,36.28
2017-05-05T08:27:04.732Z,42.65
2017-05-05T08:29:33.795Z,37.33
2017-05-05T08:32:03.621Z,36.28
2017-05-05T08:34:33.424Z,35.37
2017-05-05T08:37:03.223Z,35.32
2017-05-05T08:39:32.288Z,36.47
2017-05-05T08:42:01.429Z,34.53
2017-05-05T08:44:31.220Z,31.77
2017-05-05T08:47:00.262Z,32.90
2017-05-05T08:49:29.318Z,27.67
2017-05-05T08:51:58.366Z,31.58
2017-05-05T08:54:27.426Z,33.07
2017-05-05T08:56:57.241Z,31.17
2017-05-05T08:59:26.329Z,29.20
2017-05-05T09:01:57.026Z,26.90
2017-05-05T09:04:26.106Z,28.82
2017-05-05T09:06:55.152Z,23.03
2017-05-05T09:09:25.023Z,25.88
2017-05-05T09:11:54.168Z,29.92
2017-05-05T09:14:23.247Z,28.78
2017-05-05T09:16:53.029Z,28.55
2017-05-05T09:19:22.127Z,28.87
2017-05-05T09:21:51.183Z,32.43
2017-05-05T09:24:20.250Z,22.56
2017-05-05T09:26:50.046Z,23.87
2017-05-05T09:29:19.086Z,20.42
2017-05-05T09:31:48.170Z,22.50
2017-05-05T09:34:17.353Z,19.82
2017-05-05T09:36:47.144Z,19.25
2017-05-05T09:39:16.949Z,18.27
2017-05-05T09:41:46.017Z,20.37
2017-05-05T09:44:15.071Z,20.05
2017-05-05T09:46:44.862Z,18.28
2017-05-05T09:49:14.653Z,21.92
2017-05-05T09:51:43.779Z,21.82
2017-05-05T09:54:12.057Z,22.47
2017-05-05T09:56:41.863Z,21.40
2017-05-05T09:59:11.644Z,23.48
2017-05-05T10:01:40.730Z,22.18
2017-05-05T10:04:10.236Z,24.65
2017-05-05T10:06:40.210Z,22.57
2017-05-05T10:09:09.284Z,22.40
2017-05-05T10:11:39.077Z,25.83
2017-05-05T10:14:08.129Z,22.03
2017-05-05T10:16:37.292Z,22.10
2017-05-05T10:19:07.063Z,21.85
2017-05-05T10:21:36.141Z,23.95
2017-05-05T10:24:05.185Z,26.10
2017-05-05T10:26:34.985Z,26.57
2017-05-05T10:29:04.780Z,22.55
2017-05-05T10:31:33.841Z,26.42
2017-05-05T10:34:02.909Z,31.27
2017-05-05T10:36:31.988Z,25.06
2017-05-05T10:39:01.769Z,26.73
2017-05-05T10:41:31.666Z,24.62
2017-05-05T10:44:00.717Z,24.15
2017-05-05T10:46:29.766Z,28.52
2017-05-05T10:48:58.831Z,29.70
2017-05-05T10:51:27.874Z,27.40
2017-05-05T10:53:57.677Z,30.57
2017-05-05T10:56:26.729Z,28.48
2017-05-05T10:58:55.798Z,29.12
2017-05-05T11:01:24.852Z,23.62
2017-05-05T11:03:53.920Z,23.00
2017-05-05T11:06:22.969Z,30.48
2017-05-05T11:08:52.797Z,26.70
2017-05-05T11:11:22.300Z,22.42
2017-05-05T11:13:52.111Z,23.97
2017-05-05T11:16:21.880Z,22.73
2017-05-05T11:18:51.017Z,23.03
2017-05-05T11:21:20.931Z,28.27
2017-05-05T11:23:50.697Z,24.45
2017-05-05T11:26:19.772Z,27.65
2017-05-05T11:28:48.933Z,26.50
2017-05-05T11:31:18.746Z,31.27
2017-05-05T11:33:49.138Z,27.60
2017-05-05T11:36:18.199Z,28.10
2017-05-05T11:38:47.256Z,25.32
2017-05-05T11:41:17.078Z,25.93
2017-05-05T11:43:46.117Z,28.27
2017-05-05T11:46:15.188Z,27.43
2017-05-05T11:48:44.242Z,25.70
2017-05-05T11:51:14.052Z,22.73
2017-05-05T11:53:43.834Z,22.07
2017-05-05T11:56:12.889Z,27.57
2017-05-05T11:58:41.937Z,29.22
2017-05-05T12:01:11.064Z,23.48
2017-05-05T12:03:41.569Z,25.30
2017-05-05T12:06:12.087Z,24.66
2017-05-05T12:08:41.135Z,22.12
2017-05-05T12:11:10.193Z,24.24
2017-05-05T12:13:40.004Z,25.78
2017-05-05T12:16:09.817Z,25.08
2017-05-05T12:18:39.119Z,24.44
2017-05-05T12:21:08.920Z,18.94
2017-05-05T12:23:37.952Z,22.24
2017-05-05T12:26:07.031Z,20.94
2017-05-05T12:28:36.073Z,22.60
2017-05-05T12:31:05.153Z,22.72
2017-05-05T12:33:34.263Z,21.72
2017-05-05T12:36:03.309Z,24.10
2017-05-05T12:38:33.132Z,21.12
2017-05-05T12:41:02.905Z,22.28
2017-05-05T12:43:32.496Z,19.12
2017-05-05T12:46:01.539Z,22.84
2017-05-05T12:48:30.593Z,20.32
2017-05-05T12:50:59.705Z,18.88
2017-05-05T12:53:29.529Z,19.40
2017-05-05T12:55:59.302Z,19.70
2017-05-05T12:58:28.382Z,20.18
2017-05-05T13:00:57.437Z,20.90
2017-05-05T13:03:26.506Z,25.44
2017-05-05T13:05:55.545Z,21.82
2017-05-05T13:08:24.597Z,25.56
2017-05-05T13:10:54.409Z,24.96
2017-05-05T13:13:24.206Z,27.76
2017-05-05T13:15:53.257Z,23.46
2017-05-05T13:18:22.305Z,24.88
2017-05-05T13:20:52.117Z,23.50
2017-05-05T13:23:21.178Z,26.32
2017-05-05T13:25:50.236Z,23.72
2017-05-05T13:28:19.285Z,21.52
2017-05-05T13:30:48.339Z,29.78
2017-05-05T13:33:17.458Z,27.64
2017-05-05T13:35:46.500Z,22.34
2017-05-05T13:38:15.536Z,41.38
2017-05-05T13:40:44.589Z,22.28
2017-05-05T13:43:14.389Z,28.16
2017-05-05T13:45:43.448Z,25.42
2017-05-05T13:48:12.591Z,26.76
2017-05-05T13:50:42.381Z,28.22
2017-05-05T13:53:11.461Z,24.52
2017-05-05T13:55:40.521Z,29.40
2017-05-05T13:58:09.568Z,23.68
2017-05-05T14:00:38.646Z,26.16
2017-05-05T14:03:07.726Z,25.84
2017-05-05T14:05:36.795Z,23.10
2017-05-05T14:08:05.865Z,23.88
2017-05-05T14:10:35.698Z,21.54
2017-05-05T14:13:04.957Z,22.40
2017-05-05T14:15:34.006Z,25.46
2017-05-05T14:18:03.070Z,30.84
2017-05-05T14:20:32.134Z,23.10
2017-05-05T14:23:01.176Z,31.66
2017-05-05T14:25:30.221Z,23.56
2017-05-05T14:27:59.294Z,29.58
2017-05-05T14:30:28.693Z,37.56
2017-05-05T14:32:57.760Z,26.35
2017-05-05T14:35:26.814Z,26.52
2017-05-05T14:37:55.878Z,29.08
2017-05-05T14:40:24.925Z,25.76
2017-05-05T14:42:54.719Z,36.44
2017-05-05T14:45:24.493Z,24.44
2017-05-05T14:47:53.569Z,27.26
2017-05-05T14:50:22.605Z,26.26
2017-05-05T14:52:51.669Z,26.08
2017-05-05T14:55:20.820Z,25.54
2017-05-05T14:57:50.120Z,25.78
2017-05-05T15:00:19.893Z,27.64
2017-05-05T15:02:48.948Z,27.20
2017-05-05T15:05:17.985Z,27.42
2017-05-05T15:07:47.055Z,27.98
2017-05-05T15:10:16.657Z,28.80
2017-05-05T15:12:45.715Z,25.70
2017-05-05T15:15:15.505Z,24.02
2017-05-05T15:17:44.565Z,23.42
2017-05-05T15:20:13.635Z,33.08
2017-05-05T15:22:42.683Z,23.20
2017-05-05T15:25:11.785Z,25.78
2017-05-05T15:27:41.571Z,29.00
2017-05-05T15:30:10.644Z,28.90
2017-05-05T15:32:39.672Z,33.04
2017-05-05T15:35:08.734Z,30.84
2017-05-05T15:37:37.807Z,30.30
2017-05-05T15:40:06.885Z,33.48
2017-05-05T15:42:35.915Z,32.52
2017-05-05T15:45:04.987Z,32.34
2017-05-05T15:47:34.038Z,34.02
2017-05-05T15:50:03.087Z,35.54
2017-05-05T15:52:32.124Z,30.48
2017-05-05T15:55:01.190Z,34.74
2017-05-05T15:57:30.224Z,31.38
2017-05-05T15:59:59.923Z,33.42
2017-05-05T16:02:28.856Z,31.32
2017-05-05T16:04:58.650Z,31.38
2017-05-05T16:07:27.695Z,33.66
2017-05-05T16:09:56.742Z,29.62
2017-05-05T16:12:26.529Z,28.48
2017-05-05T16:14:55.585Z,30.30
2017-05-05T16:17:24.624Z,28.54
2017-05-05T16:19:53.697Z,30.04
2017-05-05T16:22:22.725Z,32.60
2017-05-05T16:24:52.536Z,30.02
2017-05-05T16:27:21.609Z,29.90
2017-05-05T16:29:51.542Z,30.40
2017-05-05T16:32:20.582Z,29.18
2017-05-05T16:34:49.675Z,26.56
2017-05-05T16:37:18.718Z,27.08
2017-05-05T16:39:48.513Z,27.08
2017-05-05T16:42:17.595Z,26.18
2017-05-05T16:44:46.664Z,27.30
2017-05-05T16:47:15.705Z,27.02
2017-05-05T16:49:44.772Z,25.82
2017-05-05T16:52:13.822Z,27.10
2017-05-05T16:54:42.862Z,32.92
2017-05-05T16:57:11.981Z,26.58
2017-05-05T16:59:41.102Z,28.70
2017-05-05T17:02:10.145Z,25.28
2017-05-05T17:04:39.203Z,24.30
2017-05-05T17:07:08.339Z,23.06
2017-05-05T17:09:37.381Z,24.10
2017-05-05T17:12:06.446Z,21.44
2017-05-05T17:14:35.570Z,21.28
2017-05-05T17:17:04.658Z,19.54
2017-05-05T17:19:34.445Z,22.16
2017-05-05T17:22:03.537Z,20.62
2017-05-05T17:24:32.584Z,23.14
2017-05-05T17:27:01.640Z,23.50
2017-05-05T17:29:30.691Z,21.64
2017-05-05T17:31:59.808Z,23.14
2017-05-05T17:34:28.861Z,20.02
2017-05-05T17:36:57.923Z,22.48
2017-05-05T17:39:26.977Z,21.38
2017-05-05T17:41:56.074Z,18.96
2017-05-05T17:44:25.148Z,19.62
2017-05-05T17:46:54.182Z,20.54
2017-05-05T17:49:23.229Z,19.58
2017-05-05T17:51:52.302Z,19.48
2017-05-05T17:54:22.074Z,19.14
2017-05-05T17:56:51.161Z,19.96
2017-05-05T17:59:20.220Z,20.26
2017-05-05T18:01:49.250Z,21.40
2017-05-05T18:04:18.327Z,19.76
2017-05-05T18:06:47.384Z,18.60
2017-05-05T18:09:17.176Z,18.10
2017-05-05T18:11:46.221Z,24.96
2017-05-05T18:14:15.291Z,18.28
2017-05-05T18:16:44.339Z,20.10
2017-05-05T18:19:13.412Z,21.72
2017-05-05T18:21:42.495Z,21.68
2017-05-05T18:24:12.594Z,18.48
2017-05-05T18:26:41.673Z,22.93
2017-05-05T18:29:11.492Z,21.58
2017-05-05T18:31:40.557Z,18.93
2017-05-05T18:34:09.621Z,20.90
2017-05-05T18:36:38.674Z,18.22
2017-05-05T18:39:07.744Z,21.68
2017-05-05T18:41:37.541Z,20.97
2017-05-05T18:44:06.605Z,23.42
2017-05-05T18:46:35.674Z,24.63
2017-05-05T18:49:04.749Z,23.63
2017-05-05T18:51:34.547Z,23.37
2017-05-05T18:54:03.633Z,23.88
2017-05-05T18:56:32.673Z,23.82
2017-05-05T18:59:01.760Z,21.45
2017-05-05T19:01:31.544Z,21.65
2017-05-05T19:04:00.604Z,22.60
2017-05-05T19:06:29.673Z,23.70
2017-05-05T19:08:58.727Z,20.70
2017-05-05T19:11:27.802Z,22.87
2017-05-05T19:13:56.851Z,22.40
2017-05-05T19:16:25.911Z,23.83
2017-05-05T19:18:54.966Z,23.10
2017-05-05T19:21:24.057Z,24.17
2017-05-05T19:23:53.118Z,21.25
2017-05-05T19:26:22.912Z,21.17
2017-05-05T19:28:52.788Z,20.85
2017-05-05T19:31:22.028Z,25.67
2017-05-05T19:33:52.006Z,23.83
2017-05-05T19:36:21.134Z,25.35
2017-05-05T19:38:50.917Z,26.00
2017-05-05T19:41:20.009Z,23.02
2017-05-05T19:43:49.059Z,26.05
2017-05-05T19:46:18.917Z,23.83
2017-05-05T19:48:47.984Z,23.20
2017-05-05T19:51:17.035Z,28.57
2017-05-05T19:53:46.101Z,25.97
2017-05-05T19:56:15.150Z,22.57
2017-05-05T19:58:44.214Z,25.78
2017-05-05T20:01:13.365Z,24.78
2017-05-05T20:03:42.417Z,30.33
2017-05-05T20:06:12.211Z,23.80
2017-05-05T20:08:41.275Z,26.67
2017-05-05T20:11:10.323Z,27.23
2017-05-05T20:13:40.126Z,34.93
2017-05-05T20:16:09.166Z,27.27
2017-05-05T20:18:38.298Z,27.07
2017-05-05T20:21:07.326Z,29.28
2017-05-05T20:23:36.402Z,28.87
2017-05-05T20:26:06.199Z,29.42
2017-05-05T20:28:35.325Z,30.75
2017-05-05T20:31:04.352Z,36.20
2017-05-05T20:33:33.423Z,22.58
2017-05-05T20:36:02.470Z,28.17
2017-05-05T20:38:31.522Z,29.65
2017-05-05T20:41:00.638Z,35.60
2017-05-05T20:43:29.701Z,29.05
2017-05-05T20:45:58.812Z,29.42
2017-05-05T20:48:27.885Z,29.52
2017-05-05T20:50:56.965Z,27.58
2017-05-05T20:53:26.032Z,25.47
2017-05-05T20:55:55.066Z,28.18
2017-05-05T20:58:24.883Z,27.90
2017-05-05T21:00:54.665Z,27.30
2017-05-05T21:03:23.701Z,29.48
2017-05-05T21:05:52.769Z,27.23
2017-05-05T21:08:22.554Z,28.30
2017-05-05T21:10:51.698Z,30.02
2017-05-05T21:13:21.524Z,31.98
2017-05-05T21:15:50.569Z,26.87
2017-05-05T21:18:19.611Z,29.42
2017-05-05T21:20:48.657Z,28.80
2017-05-05T21:23:17.700Z,30.53
2017-05-05T21:25:46.752Z,27.58
2017-05-05T21:28:15.777Z,32.28
2017-05-05T21:30:44.956Z,27.82
2017-05-05T21:33:13.968Z,30.52
2017-05-05T21:35:43.852Z,28.22
2017-05-05T21:38:12.901Z,31.77
2017-05-05T21:40:41.934Z,32.93
2017-05-05T21:43:10.983Z,29.43
2017-05-05T21:45:40.001Z,34.97
2017-05-05T21:48:09.069Z,32.58
2017-05-05T21:50:38.110Z,29.17
2017-05-05T21:53:07.156Z,36.23
2017-05-05T21:55:36.211Z,35.30
2017-05-05T21:58:05.243Z,33.33
2017-05-05T22:00:34.285Z,33.85
2017-05-05T22:03:03.332Z,36.20
2017-05-05T22:05:32.357Z,35.77
2017-05-05T22:08:01.406Z,32.90
2017-05-05T22:10:30.427Z,36.97
2017-05-05T22:12:59.497Z,37.68
2017-05-05T22:15:28.520Z,35.87
2017-05-05T22:17:57.569Z,38.25
2017-05-05T22:20:26.612Z,41.43
2017-05-05T22:22:55.662Z,39.50
2017-05-05T22:25:24.722Z,36.57
2017-05-05T22:27:53.785Z,36.37
2017-05-05T22:30:23.028Z,36.82
2017-05-05T22:32:52.093Z,41.80
2017-05-05T22:35:21.122Z,39.33
2017-05-05T22:37:50.928Z,36.15
2017-05-05T22:40:20.717Z,40.03
2017-05-05T22:42:49.841Z,41.12
2017-05-05T22:45:18.874Z,40.73
2017-05-05T22:47:47.979Z,41.55
2017-05-05T22:50:17.038Z,37.87
2017-05-05T22:52:46.097Z,40.93
2017-05-05T22:55:15.202Z,40.63
2017-05-05T22:57:44.969Z,42.75
2017-05-05T23:00:14.023Z,42.02
2017-05-05T23:02:43.811Z,41.43
2017-05-05T23:05:12.861Z,42.28
2017-05-05T23:07:41.894Z,37.68
2017-05-05T23:10:10.970Z,41.55
2017-05-05T23:12:40.005Z,42.25
2017-05-05T23:15:09.911Z,43.82
2017-05-05T23:17:39.685Z,41.58
2017-05-05T23:20:08.759Z,40.12
2017-05-05T23:22:37.787Z,43.57
2017-05-05T23:25:06.910Z,42.63
2017-05-05T23:27:36.706Z,42.58
2017-05-05T23:30:05.737Z,46.77
2017-05-05T23:32:34.909Z,41.58
2017-05-05T23:35:04.673Z,44.32
2017-05-05T23:37:33.723Z,44.37
2017-05-05T23:40:03.496Z,43.58
2017-05-05T23:42:32.558Z,42.20
2017-05-05T23:45:01.590Z,44.42
2017-05-05T23:47:30.634Z,51.15
2017-05-05T23:49:59.665Z,43.18
2017-05-05T23:52:28.836Z,46.63
2017-05-05T23:54:57.867Z,45.73
2017-05-05T23:57:26.922Z,45.85
2017-05-05T23:59:55.961Z,40.52
